createdAt,value
2022-12-09T00:01:03.163Z,2.67
2022-12-09T00:05:29.632Z,2.68
2022-12-09T00:09:56.601Z,2.69
2022-12-09T00:11:55.716Z,2.68
2022-12-09T00:13:24.670Z,2.69
2022-12-09T00:16:26.713Z,2.69
2022-12-09T00:19:54.255Z,2.72
2022-12-09T00:21:52.126Z,2.72
2022-12-09T00:23:51.187Z,2.71
2022-12-09T00:25:48.884Z,2.72
2022-12-09T00:27:46.703Z,2.71
2022-12-09T00:30:16.614Z,2.71
2022-12-09T00:33:45.988Z,2.71
2022-12-09T00:38:21.348Z,2.68
2022-12-09T00:41:18.086Z,2.68
2022-12-09T00:45:49.072Z,2.68
2022-12-09T00:47:18.143Z,2.68
2022-12-09T00:51:47.849Z,2.65
2022-12-09T00:55:42.668Z,2.65
2022-12-09T00:58:43.129Z,2.57
2022-12-09T01:00:44.128Z,2.56
2022-12-09T01:03:11.200Z,2.53
2022-12-09T01:04:39.939Z,2.51
2022-12-09T01:06:08.999Z,2.51
2022-12-09T01:09:35.875Z,2.49
2022-12-09T01:14:13.401Z,2.39
2022-12-09T01:16:12.721Z,2.36
2022-12-09T01:20:39.349Z,2.28
2022-12-09T01:22:37.584Z,2.26
2022-12-09T01:25:35.397Z,2.24
2022-12-09T01:28:40.296Z,2.20
2022-12-09T01:30:12.286Z,2.17
2022-12-09T01:41:56.616Z,2.02
2022-12-09T01:44:43.144Z,1.99
2022-12-09T01:46:13.255Z,1.95
2022-12-09T01:48:15.175Z,1.92
2022-12-09T01:51:46.246Z,1.87
2022-12-09T01:54:16.160Z,1.84
2022-12-09T02:00:11.974Z,1.73
2022-12-09T02:02:09.990Z,1.70
2022-12-09T02:09:02.745Z,1.66
2022-12-09T02:13:56.911Z,1.66
2022-12-09T02:29:11.343Z,1.80
2022-12-09T02:33:12.060Z,1.81
2022-12-09T02:36:39.883Z,1.84
2022-12-09T02:46:23.569Z,1.84
2022-12-09T02:49:52.394Z,1.85
2022-12-09T02:57:12.893Z,1.85
2022-12-09T03:05:12.483Z,1.87
2022-12-09T03:07:42.615Z,1.87
2022-12-09T03:09:42.445Z,1.88
2022-12-09T03:12:42.655Z,1.89
2022-12-09T03:17:09.721Z,1.88
2022-12-09T03:20:10.254Z,1.91
2022-12-09T03:22:11.063Z,1.89
2022-12-09T03:26:05.734Z,1.91
2022-12-09T03:28:35.959Z,1.91
2022-12-09T03:35:51.282Z,1.91
2022-12-09T03:37:20.259Z,1.92
2022-12-09T03:39:19.149Z,1.92
2022-12-09T03:41:50.408Z,1.94
2022-12-09T03:43:50.135Z,1.92
2022-12-09T03:46:17.168Z,1.94
2022-12-09T03:47:49.336Z,1.92
2022-12-09T03:50:19.904Z,1.94
2022-12-09T03:52:47.148Z,1.95
2022-12-09T03:56:05.638Z,1.97
2022-12-09T03:57:34.190Z,1.99
2022-12-09T04:00:05.206Z,2.02
2022-12-09T04:02:07.228Z,2.04
2022-12-09T04:03:36.059Z,2.06
2022-12-09T04:05:04.956Z,2.06
2022-12-09T04:09:08.538Z,2.07
2022-12-09T04:11:09.520Z,2.07
2022-12-09T04:13:36.661Z,2.06
2022-12-09T04:16:06.598Z,2.07
2022-12-09T04:18:37.193Z,2.10
2022-12-09T04:22:30.716Z,2.10
2022-12-09T04:24:28.884Z,2.10
2022-12-09T04:26:59.559Z,2.10
2022-12-09T04:28:28.537Z,2.11
2022-12-09T04:31:57.250Z,2.13
2022-12-09T04:33:56.156Z,2.11
2022-12-09T04:35:25.018Z,2.11
2022-12-09T04:39:18.848Z,2.14
2022-12-09T05:00:42.664Z,1.95
2022-12-09T05:03:14.261Z,1.91
2022-12-09T05:05:23.614Z,1.89
2022-12-09T05:08:31.851Z,1.84
2022-12-09T05:12:55.634Z,1.74
2022-12-09T05:15:23.806Z,1.71
2022-12-09T05:18:10.593Z,1.67
2022-12-09T05:20:40.211Z,1.66
2022-12-09T05:24:07.714Z,1.62
2022-12-09T05:29:03.074Z,1.62
2022-12-09T05:34:58.585Z,1.59
2022-12-09T05:37:28.196Z,1.58
2022-12-09T05:40:24.455Z,1.53
2022-12-09T05:46:35.400Z,1.50
2022-12-09T05:51:31.356Z,1.45
2022-12-09T05:54:28.859Z,1.42
2022-12-09T05:58:26.447Z,1.38
2022-12-09T06:01:25.142Z,1.34
2022-12-09T06:04:52.926Z,1.28
2022-12-09T06:10:08.714Z,1.22
2022-12-09T06:29:56.528Z,0.98
2022-12-09T06:32:52.995Z,0.95
2022-12-09T06:36:56.005Z,0.87
2022-12-09T06:38:26.642Z,0.83
2022-12-09T06:40:22.873Z,0.81
2022-12-09T06:42:23.714Z,0.78
2022-12-09T06:45:19.965Z,0.69
2022-12-09T06:46:48.796Z,0.65
2022-12-09T06:51:53.525Z,0.55
2022-12-09T07:01:23.851Z,0.40
2022-12-09T07:16:50.653Z,0.15
2022-12-09T07:20:45.224Z,0.11
2022-12-09T07:33:56.362Z,-0.02
2022-12-09T07:36:25.006Z,-0.03
2022-12-09T07:37:53.483Z,-0.06
2022-12-09T07:46:11.403Z,-0.02
2022-12-09T07:47:40.218Z,-0.03
2022-12-09T07:52:07.767Z,0.00
2022-12-09T07:55:05.565Z,0.01
2022-12-09T07:59:58.157Z,0.07
2022-12-09T08:03:23.794Z,0.12
2022-12-09T08:04:52.673Z,0.15
2022-12-09T08:10:25.401Z,0.28
2022-12-09T08:13:23.215Z,0.41
2022-12-09T08:17:18.610Z,0.58
2022-12-09T08:22:40.739Z,0.73
2022-12-09T08:25:36.672Z,0.77
2022-12-09T08:27:06.061Z,0.81
2022-12-09T08:29:32.809Z,0.88
2022-12-09T08:30:32.438Z,0.92
2022-12-09T08:31:37.104Z,0.94
2022-12-09T08:33:33.497Z,0.98
2022-12-09T08:35:31.302Z,1.02
2022-12-09T08:39:25.142Z,1.10
2022-12-09T08:40:54.866Z,1.16
2022-12-09T08:42:53.079Z,1.19
2022-12-09T08:46:19.680Z,1.26
2022-12-09T08:48:17.540Z,1.31
2022-12-09T08:50:45.464Z,1.37
2022-12-09T08:52:14.259Z,1.40
2022-12-09T08:57:07.723Z,1.45
2022-12-09T09:01:32.967Z,1.53
2022-12-09T09:03:01.333Z,1.53
2022-12-09T09:06:26.349Z,1.55
2022-12-09T09:07:55.093Z,1.56
2022-12-09T09:10:52.016Z,1.59
2022-12-09T09:12:20.901Z,1.62
2022-12-09T09:14:20.966Z,1.67
2022-12-09T09:18:44.595Z,1.77
2022-12-09T09:21:43.144Z,1.81
2022-12-09T09:23:13.222Z,1.84
2022-12-09T09:27:39.114Z,1.84
2022-12-09T09:31:05.236Z,1.87
2022-12-09T09:32:33.809Z,1.91
2022-12-09T09:34:34.813Z,1.97
2022-12-09T09:37:30.441Z,2.04
2022-12-09T09:43:22.139Z,2.11
2022-12-09T09:45:49.019Z,2.15
2022-12-09T09:52:09.498Z,2.22
2022-12-09T09:56:33.975Z,2.31
2022-12-09T10:00:31.775Z,2.35
2022-12-09T10:06:55.168Z,2.44
2022-12-09T10:08:44.757Z,2.47
2022-12-09T10:13:38.577Z,2.50
2022-12-09T10:22:29.686Z,2.61
2022-12-09T10:29:19.376Z,2.65
2022-12-09T10:31:45.984Z,2.68
2022-12-09T10:33:44.804Z,2.72
2022-12-09T10:35:43.551Z,2.74
2022-12-09T10:39:00.247Z,2.80
2022-12-09T10:41:27.617Z,2.80
2022-12-09T10:43:25.481Z,2.83
2022-12-09T10:45:23.143Z,2.83
2022-12-09T10:48:22.606Z,2.83
2022-12-09T10:49:50.804Z,2.83
2022-12-09T10:58:30.402Z,2.83
2022-12-09T11:00:34.461Z,2.82
2022-12-09T11:03:28.712Z,2.83
2022-12-09T11:05:19.189Z,2.85
2022-12-09T11:06:45.848Z,2.85
2022-12-09T11:10:09.754Z,2.86
2022-12-09T11:12:08.063Z,2.87
2022-12-09T11:17:03.393Z,2.89
2022-12-09T11:19:51.432Z,2.95
2022-12-09T11:27:26.700Z,3.00
2022-12-09T11:28:58.219Z,3.01
2022-12-09T11:30:00.345Z,3.00
2022-12-09T11:31:27.669Z,3.01
2022-12-09T11:32:47.954Z,3.08
2022-12-09T11:35:39.949Z,3.13
2022-12-09T11:43:03.263Z,3.23
2022-12-09T11:45:51.929Z,3.23
2022-12-09T11:48:55.710Z,3.22
2022-12-09T11:50:26.178Z,3.23
2022-12-09T11:55:21.848Z,3.19
2022-12-09T12:00:06.391Z,3.13
2022-12-09T12:01:37.461Z,3.13
2022-12-09T12:03:38.197Z,3.14
2022-12-09T12:05:05.248Z,3.14
2022-12-09T12:06:55.040Z,3.13
2022-12-09T12:08:26.889Z,3.14
2022-12-09T12:09:55.797Z,3.14
2022-12-09T12:12:24.772Z,3.13
2022-12-09T12:16:02.987Z,3.11
2022-12-09T12:19:24.531Z,3.13
2022-12-09T12:25:24.017Z,3.05
2022-12-09T12:29:12.160Z,3.05
2022-12-09T12:35:00.344Z,3.03
2022-12-09T12:37:16.629Z,3.01
2022-12-09T12:40:19.645Z,3.01
2022-12-09T12:41:48.057Z,2.98
2022-12-09T12:45:26.652Z,3.04
2022-12-09T12:47:54.977Z,3.04
2022-12-09T12:59:28.239Z,3.03
2022-12-09T13:00:55.616Z,3.03
2022-12-09T13:02:59.233Z,3.04
2022-12-09T13:06:12.270Z,2.95
2022-12-09T13:13:22.757Z,2.93
2022-12-09T13:19:21.933Z,3.03
2022-12-09T13:21:20.836Z,3.05
2022-12-09T13:24:42.348Z,3.00
2022-12-09T13:26:10.152Z,2.97
2022-12-09T13:28:46.561Z,2.98
2022-12-09T13:32:52.059Z,3.01
2022-12-09T13:34:50.995Z,3.03
2022-12-09T13:36:53.840Z,2.98
2022-12-09T13:40:59.855Z,2.98
2022-12-09T13:43:56.103Z,2.95
2022-12-09T13:48:16.552Z,3.00
2022-12-09T13:50:01.108Z,2.95
2022-12-09T14:00:19.071Z,2.93
2022-12-09T14:02:44.879Z,2.93
2022-12-09T14:06:02.427Z,2.86
2022-12-09T14:08:29.284Z,2.85
2022-12-09T14:09:58.206Z,2.85
2022-12-09T14:14:22.359Z,2.68
2022-12-09T14:17:49.287Z,2.65
2022-12-09T14:19:18.184Z,2.64
2022-12-09T14:22:15.869Z,2.64
2022-12-09T14:24:11.785Z,2.65
2022-12-09T14:26:10.584Z,2.64
2022-12-09T14:28:08.373Z,2.64
2022-12-09T14:31:09.028Z,2.60
2022-12-09T14:35:30.121Z,2.57
2022-12-09T14:36:30.082Z,2.60
2022-12-09T14:37:30.091Z,2.60
2022-12-09T14:42:25.040Z,2.61
2022-12-09T14:44:23.872Z,2.61
2022-12-09T14:50:20.530Z,2.60
2022-12-09T14:51:50.433Z,2.54
2022-12-09T14:54:18.144Z,2.51
2022-12-09T14:58:43.757Z,2.46
2022-12-09T15:00:12.743Z,2.46
2022-12-09T15:10:30.941Z,2.46
2022-12-09T15:11:56.879Z,2.46
2022-12-09T15:13:54.694Z,2.46
2022-12-09T15:18:47.041Z,2.44
2022-12-09T15:22:13.669Z,2.42
2022-12-09T15:24:12.461Z,2.36
2022-12-09T15:27:37.657Z,2.39
2022-12-09T15:38:27.989Z,2.35
2022-12-09T15:48:11.065Z,2.29
2022-12-09T15:51:07.774Z,2.26
2022-12-09T15:59:55.869Z,2.31
2022-12-09T16:01:23.073Z,2.28
2022-12-09T16:05:47.482Z,2.29
2022-12-09T16:12:08.143Z,2.29
2022-12-09T16:13:37.151Z,2.28
2022-12-09T16:17:02.635Z,2.26
2022-12-09T16:20:58.584Z,2.18
2022-12-09T16:25:51.547Z,2.18
2022-12-09T16:28:48.360Z,2.17
2022-12-09T16:31:15.069Z,2.13
2022-12-09T16:36:58.177Z,2.14
2022-12-09T16:39:54.030Z,2.15
2022-12-09T16:47:13.324Z,2.11
2022-12-09T16:50:40.217Z,2.08
2022-12-09T16:52:39.971Z,2.08
2022-12-09T16:54:39.809Z,2.10
2022-12-09T16:58:07.576Z,2.08
2022-12-09T17:01:32.198Z,2.11
2022-12-09T17:06:26.971Z,2.11
2022-12-09T17:08:25.184Z,2.10
2022-12-09T17:15:15.894Z,2.08
2022-12-09T17:18:13.368Z,2.10
2022-12-09T17:23:09.133Z,2.10
2022-12-09T17:24:38.044Z,2.10
2022-12-09T17:26:38.123Z,2.10
2022-12-09T17:40:48.860Z,2.04
2022-12-09T17:43:16.055Z,2.00
2022-12-09T17:46:12.713Z,2.02
2022-12-09T17:50:37.810Z,2.02
2022-12-09T17:55:03.234Z,2.02
2022-12-09T17:59:56.788Z,2.00
2022-12-09T18:01:26.087Z,1.99
2022-12-09T18:02:54.997Z,1.94
2022-12-09T18:05:23.808Z,1.94
2022-12-09T18:07:22.632Z,1.94
2022-12-09T18:11:46.371Z,1.91
2022-12-09T18:17:38.096Z,1.91
2022-12-09T18:20:05.243Z,1.91
2022-12-09T18:22:33.885Z,1.88
2022-12-09T18:24:31.774Z,1.88
2022-12-09T18:29:27.403Z,1.87
2022-12-09T18:30:56.437Z,1.85
2022-12-09T18:31:56.423Z,1.84
2022-12-09T18:32:56.406Z,1.85
2022-12-09T18:34:55.238Z,1.87
2022-12-09T18:36:55.074Z,1.87
2022-12-09T18:38:52.897Z,1.88
2022-12-09T18:42:49.649Z,1.87
2022-12-09T18:49:13.198Z,1.87
2022-12-09T18:53:35.984Z,1.87
2022-12-09T18:56:03.913Z,1.87
2022-12-09T18:57:34.161Z,1.88
2022-12-09T18:59:07.810Z,1.88
2022-12-09T19:02:01.440Z,1.87
2022-12-09T19:06:54.342Z,1.81
2022-12-09T19:08:23.720Z,1.84
2022-12-09T19:11:48.139Z,1.76
2022-12-09T19:14:44.804Z,1.67
2022-12-09T19:18:12.368Z,1.58
2022-12-09T19:19:41.251Z,1.52
2022-12-09T19:21:11.144Z,1.49
2022-12-09T19:22:40.207Z,1.42
2022-12-09T19:24:09.091Z,1.40
2022-12-09T19:28:34.577Z,1.23
2022-12-09T19:30:03.515Z,1.19
2022-12-09T19:31:32.524Z,1.16
2022-12-09T19:36:55.990Z,1.05
2022-12-09T19:45:12.123Z,1.01
2022-12-09T19:47:06.440Z,1.01
2022-12-09T19:49:05.293Z,1.01
2022-12-09T19:50:34.172Z,1.02
2022-12-09T19:54:00.717Z,1.02
2022-12-09T20:00:51.106Z,1.08
2022-12-09T20:03:19.363Z,1.10
2022-12-09T20:05:46.933Z,1.14
2022-12-09T20:08:15.696Z,1.19
2022-12-09T20:15:28.891Z,1.24
2022-12-09T20:16:57.748Z,1.26
2022-12-09T20:19:26.501Z,1.26
2022-12-09T20:22:51.089Z,1.30
2022-12-09T20:27:15.638Z,1.31
2022-12-09T20:28:45.863Z,1.30
2022-12-09T20:30:15.770Z,1.30
2022-12-09T20:31:45.645Z,1.28
2022-12-09T20:33:15.508Z,1.26
2022-12-09T20:38:10.883Z,1.20
2022-12-09T20:41:37.763Z,1.14
2022-12-09T20:47:29.350Z,1.02
2022-12-09T20:49:28.112Z,0.99
2022-12-09T20:50:57.004Z,0.95
2022-12-09T20:53:24.892Z,0.91
2022-12-09T20:54:53.740Z,0.86
2022-12-09T20:57:21.595Z,0.81
2022-12-09T20:59:20.356Z,0.78
2022-12-09T21:03:14.864Z,0.73
2022-12-09T21:05:13.708Z,0.68
2022-12-09T21:11:33.124Z,0.62
2022-12-09T21:14:33.143Z,0.60
2022-12-09T21:17:28.319Z,0.59
2022-12-09T21:23:10.801Z,0.50
2022-12-09T21:27:50.702Z,0.44
2022-12-09T21:29:19.572Z,0.41
2022-12-09T21:32:45.494Z,0.36
2022-12-09T21:34:43.297Z,0.32
2022-12-09T21:39:08.063Z,0.23
2022-12-09T21:41:05.954Z,0.18
2022-12-09T21:46:53.655Z,0.07
2022-12-09T21:55:16.079Z,0.00
2022-12-09T22:02:40.774Z,-0.10
2022-12-09T22:04:09.617Z,-0.13
2022-12-09T22:10:05.109Z,-0.14
2022-12-09T22:13:02.784Z,-0.20
2022-12-09T22:15:29.721Z,-0.21
2022-12-09T22:16:29.720Z,-0.25
2022-12-09T22:17:29.689Z,-0.26
2022-12-09T22:21:52.632Z,-0.31
2022-12-09T22:23:50.722Z,-0.32
2022-12-09T22:27:45.624Z,-0.35
2022-12-09T22:29:14.515Z,-0.35
2022-12-09T22:31:14.687Z,-0.38
2022-12-09T22:32:49.195Z,-0.41
2022-12-09T22:35:11.540Z,-0.43
2022-12-09T22:36:40.417Z,-0.46
2022-12-09T22:40:07.035Z,-0.50
2022-12-09T22:48:28.129Z,-0.57
2022-12-09T22:52:00.339Z,-0.64
2022-12-09T22:53:54.652Z,-0.67
2022-12-09T22:55:54.677Z,-0.70
2022-12-09T22:57:23.589Z,-0.72
2022-12-09T22:59:51.596Z,-0.74
2022-12-09T23:01:21.478Z,-0.75
2022-12-09T23:02:51.494Z,-0.78
2022-12-09T23:04:40.070Z,-0.80
2022-12-09T23:07:36.926Z,-0.83
2022-12-09T23:09:34.842Z,-0.86
2022-12-09T23:11:04.741Z,-0.86
2022-12-09T23:33:32.326Z,-1.05
2022-12-09T23:36:59.164Z,-1.09
2022-12-09T23:39:56.744Z,-1.12
2022-12-09T23:41:26.736Z,-1.14
2022-12-09T23:52:32.387Z,-1.22
2022-12-09T23:54:31.252Z,-1.23
2022-12-09T23:56:58.153Z,-1.26
2022-12-09T23:59:56.009Z,-1.29
